Terminal Aerodrome Forecast
Issued by NWS Hastings, NE

Home | Current Version | Previous Version | Text Only | Print | Product List | Glossary On
Versions: 1 2 3 4 5 6 7 8 9 10 11 12 13 14 15 16 17 18 19 20 21 22 23 24 25 26
000
FTUS43 KGID 051138
TAFGRI
TAF
KGRI 051138Z 0512/0612 17012KT P6SM SCT120 SCT200 WS015/20045KT
     FM051500 18018G26KT P6SM BKN120
     FM060000 16014KT P6SM BKN120
     FM060400 16012KT P6SM VCTS SCT050CB BKN120 WS015/19042KT=

USA.gov is the U.S. government's official web portal to all federal, state and local government web resources and services.